createdAt,value
2023-01-07T00:01:31.810Z,4.67
2023-01-07T00:04:01.682Z,4.87
2023-01-07T00:06:32.741Z,4.70
2023-01-07T00:09:01.801Z,4.27
2023-01-07T00:11:31.497Z,5.00
2023-01-07T00:14:01.572Z,4.40
2023-01-07T00:16:32.609Z,4.80
2023-01-07T00:19:02.795Z,5.27
2023-01-07T00:21:31.984Z,4.90
2023-01-07T00:24:02.398Z,5.40
2023-01-07T00:26:32.840Z,5.63
2023-01-07T00:29:01.459Z,5.53
2023-01-07T00:31:33.055Z,5.80
2023-01-07T00:34:09.312Z,5.67
2023-01-07T00:36:40.764Z,5.63
2023-01-07T00:39:11.605Z,4.73
2023-01-07T00:41:40.146Z,4.73
2023-01-07T00:44:09.566Z,4.97
2023-01-07T00:46:39.355Z,5.40
2023-01-07T00:49:07.867Z,5.30
2023-01-07T00:51:36.223Z,5.38
2023-01-07T00:54:04.663Z,4.80
2023-01-07T00:56:33.692Z,4.87
2023-01-07T00:59:02.132Z,5.27
2023-01-07T01:01:30.652Z,4.20
2023-01-07T01:04:00.586Z,5.07
2023-01-07T01:06:29.053Z,4.53
2023-01-07T01:08:57.442Z,4.70
2023-01-07T01:11:25.824Z,4.40
2023-01-07T01:13:54.226Z,5.10
2023-01-07T01:16:22.719Z,4.40
2023-01-07T01:18:51.101Z,4.93
2023-01-07T01:21:20.893Z,5.10
2023-01-07T01:23:49.304Z,4.33
2023-01-07T01:26:18.620Z,4.33
2023-01-07T01:28:47.235Z,4.10
2023-01-07T01:31:15.729Z,4.27
2023-01-07T01:33:44.112Z,4.10
2023-01-07T01:36:13.575Z,4.57
2023-01-07T01:38:43.444Z,4.83
2023-01-07T01:41:13.778Z,3.80
2023-01-07T01:43:44.512Z,4.23
2023-01-07T01:46:16.022Z,4.00
2023-01-07T01:48:48.938Z,4.30
2023-01-07T01:51:20.833Z,4.47
2023-01-07T01:53:51.283Z,3.63
2023-01-07T01:56:22.257Z,4.37
2023-01-07T01:58:54.857Z,4.40
2023-01-07T02:01:23.453Z,4.43
2023-01-07T02:03:52.815Z,3.60
2023-01-07T02:06:25.308Z,4.20
2023-01-07T02:08:55.085Z,4.17
2023-01-07T02:11:32.522Z,3.60
2023-01-07T02:14:11.386Z,3.83
2023-01-07T02:16:49.069Z,3.40
2023-01-07T02:19:48.701Z,3.93
2023-01-07T02:22:27.247Z,4.63
2023-01-07T02:25:26.830Z,3.83
2023-01-07T02:28:29.834Z,4.03
2023-01-07T02:31:27.881Z,3.73
2023-01-07T02:34:03.664Z,3.70
2023-01-07T02:36:48.679Z,3.73
2023-01-07T02:39:33.508Z,3.70
2023-01-07T02:42:09.225Z,3.90
2023-01-07T02:44:43.840Z,3.20
2023-01-07T02:47:18.550Z,4.40
2023-01-07T02:49:49.868Z,3.30
2023-01-07T02:52:20.667Z,3.80
2023-01-07T02:54:55.370Z,3.77
2023-01-07T02:58:02.985Z,4.17
2023-01-07T03:00:59.279Z,4.10
2023-01-07T03:03:45.342Z,3.70
2023-01-07T03:06:32.418Z,3.47
2023-01-07T03:09:08.732Z,3.77
2023-01-07T03:11:43.611Z,3.67
2023-01-07T03:14:19.235Z,4.37
2023-01-07T03:16:54.592Z,3.90
2023-01-07T03:19:29.488Z,4.23
2023-01-07T03:22:01.439Z,4.37
2023-01-07T03:24:31.813Z,3.77
2023-01-07T03:27:04.320Z,4.40
2023-01-07T03:29:33.304Z,4.83
2023-01-07T03:32:08.474Z,4.73
2023-01-07T03:34:38.395Z,4.60
2023-01-07T03:37:13.698Z,4.10
2023-01-07T03:39:43.260Z,4.17
2023-01-07T03:42:30.491Z,4.67
2023-01-07T03:44:59.873Z,4.97
2023-01-07T03:47:29.649Z,5.13
2023-01-07T03:49:58.001Z,5.00
2023-01-07T03:52:27.910Z,4.33
2023-01-07T03:54:56.279Z,4.73
2023-01-07T03:57:24.717Z,4.93
2023-01-07T03:59:53.199Z,4.77
2023-01-07T04:02:21.577Z,4.80
2023-01-07T04:04:50.056Z,5.57
2023-01-07T04:07:18.519Z,6.03
2023-01-07T04:09:49.702Z,6.37
2023-01-07T04:12:18.202Z,5.97
2023-01-07T04:14:46.567Z,4.83
2023-01-07T04:17:14.900Z,5.77
2023-01-07T04:19:43.336Z,5.23
2023-01-07T04:22:12.219Z,5.53
2023-01-07T04:24:40.580Z,5.97
2023-01-07T04:27:10.580Z,5.07
2023-01-07T04:29:38.987Z,5.20
2023-01-07T04:32:07.516Z,5.88
2023-01-07T04:34:35.961Z,5.83
2023-01-07T04:37:04.339Z,5.17
2023-01-07T04:39:32.689Z,5.37
2023-01-07T04:42:01.005Z,4.87
2023-01-07T04:44:30.872Z,5.73
2023-01-07T04:46:59.237Z,5.40
2023-01-07T04:49:27.581Z,4.43
2023-01-07T04:51:55.967Z,5.17
2023-01-07T04:54:24.347Z,5.63
2023-01-07T04:56:52.834Z,5.10
2023-01-07T04:59:21.376Z,5.10
2023-01-07T05:01:51.320Z,4.77
2023-01-07T05:04:20.074Z,5.23
2023-01-07T05:06:48.749Z,5.10
2023-01-07T05:09:17.230Z,5.43
2023-01-07T05:11:45.769Z,5.80
2023-01-07T05:14:14.595Z,5.57
2023-01-07T05:16:43.108Z,4.50
2023-01-07T05:19:13.182Z,4.30
2023-01-07T05:21:41.573Z,4.50
2023-01-07T05:24:10.058Z,4.60
2023-01-07T05:26:38.521Z,4.40
2023-01-07T05:29:07.090Z,4.90
2023-01-07T05:31:35.432Z,4.90
2023-01-07T05:34:03.857Z,4.60
2023-01-07T05:36:33.735Z,4.77
2023-01-07T05:39:02.180Z,5.17
2023-01-07T05:41:30.594Z,5.10
2023-01-07T05:43:59.065Z,6.30
2023-01-07T05:46:27.549Z,5.53
2023-01-07T05:48:56.049Z,6.20
2023-01-07T05:51:24.444Z,5.10
2023-01-07T05:53:54.224Z,5.57
2023-01-07T05:56:22.669Z,6.40
2023-01-07T05:58:51.124Z,6.40
2023-01-07T06:01:20.065Z,6.63
2023-01-07T06:03:48.513Z,6.73
2023-01-07T06:06:16.881Z,7.10
2023-01-07T06:08:45.176Z,7.33
2023-01-07T06:11:14.964Z,7.97
2023-01-07T06:13:43.378Z,6.50
2023-01-07T06:16:14.121Z,6.67
2023-01-07T06:18:42.535Z,7.20
2023-01-07T06:21:10.990Z,6.93
2023-01-07T06:23:39.286Z,7.00
2023-01-07T06:26:07.616Z,7.13
2023-01-07T06:28:37.251Z,7.37
2023-01-07T06:31:05.775Z,6.77
2023-01-07T06:33:34.149Z,6.80
2023-01-07T06:36:02.573Z,8.10
2023-01-07T06:38:30.910Z,8.13
2023-01-07T06:40:59.701Z,7.60
2023-01-07T06:43:28.233Z,8.10
2023-01-07T06:45:58.208Z,7.33
2023-01-07T06:48:26.654Z,8.30
2023-01-07T06:50:54.945Z,7.33
2023-01-07T06:53:23.348Z,8.70
2023-01-07T06:55:52.006Z,8.70
2023-01-07T06:58:20.572Z,8.50
2023-01-07T07:00:48.946Z,7.80
2023-01-07T07:03:18.768Z,7.67
2023-01-07T07:05:47.690Z,7.60
2023-01-07T07:08:16.121Z,7.30
2023-01-07T07:10:44.485Z,7.93
2023-01-07T07:13:12.887Z,7.43
2023-01-07T07:15:44.048Z,8.93
2023-01-07T07:18:12.487Z,8.30
2023-01-07T07:20:42.312Z,9.13
2023-01-07T07:23:10.902Z,9.13
2023-01-07T07:25:39.480Z,8.97
2023-01-07T07:28:10.391Z,9.30
2023-01-07T07:30:46.267Z,9.33
2023-01-07T07:33:19.364Z,10.00
2023-01-07T07:35:50.092Z,9.67
2023-01-07T07:38:19.185Z,11.00
2023-01-07T07:40:47.905Z,11.37
2023-01-07T07:43:16.624Z,10.60
2023-01-07T07:45:45.925Z,11.53
2023-01-07T07:48:15.725Z,11.80
2023-01-07T07:50:44.529Z,12.17
2023-01-07T07:53:15.340Z,11.23
2023-01-07T07:55:43.774Z,10.93
2023-01-07T07:58:12.270Z,9.73
2023-01-07T08:00:40.806Z,9.67
2023-01-07T08:03:09.547Z,8.47
2023-01-07T08:05:41.343Z,7.13
2023-01-07T08:08:11.502Z,8.10
2023-01-07T08:10:41.857Z,6.33
2023-01-07T08:13:11.117Z,5.70
2023-01-07T08:15:39.723Z,6.27
2023-01-07T08:18:09.871Z,6.00
2023-01-07T08:20:38.890Z,4.83
2023-01-07T08:23:09.052Z,5.30
2023-01-07T08:25:37.445Z,4.87
2023-01-07T08:28:07.422Z,5.50
2023-01-07T08:30:35.868Z,4.83
2023-01-07T08:33:09.214Z,5.13
2023-01-07T08:35:37.678Z,4.37
2023-01-07T08:38:07.493Z,4.90
2023-01-07T08:40:36.274Z,5.10
2023-01-07T08:43:08.047Z,5.10
2023-01-07T08:45:36.662Z,5.00
2023-01-07T08:48:05.973Z,4.63
2023-01-07T08:50:35.554Z,5.17
2023-01-07T08:53:04.000Z,5.23
2023-01-07T08:55:32.401Z,5.63
2023-01-07T08:58:00.819Z,6.23
2023-01-07T09:00:30.685Z,5.40
2023-01-07T09:02:59.187Z,5.77
2023-01-07T09:05:27.597Z,5.33
2023-01-07T09:07:56.942Z,5.38
2023-01-07T09:10:25.821Z,5.00
2023-01-07T09:12:54.235Z,4.57
2023-01-07T09:15:22.999Z,4.60
2023-01-07T09:17:52.772Z,5.10
2023-01-07T09:20:22.756Z,4.93
2023-01-07T09:22:51.120Z,4.60
2023-01-07T09:25:19.529Z,5.63
2023-01-07T09:27:47.785Z,4.37
2023-01-07T09:30:16.426Z,3.67
2023-01-07T09:32:45.254Z,4.73
2023-01-07T09:35:15.651Z,4.60
2023-01-07T09:37:43.909Z,4.57
2023-01-07T09:40:22.847Z,5.10
2023-01-07T09:42:58.231Z,5.20
2023-01-07T09:45:30.519Z,4.63
2023-01-07T09:48:01.085Z,3.50
2023-01-07T09:50:43.277Z,4.37
2023-01-07T09:53:16.427Z,3.97
2023-01-07T09:56:11.477Z,5.17
2023-01-07T09:58:36.429Z,4.70
2023-01-07T10:01:19.220Z,5.10
2023-01-07T10:03:55.745Z,4.53
2023-01-07T10:06:42.973Z,4.70
2023-01-07T10:09:23.061Z,5.03
2023-01-07T10:12:00.589Z,5.00
2023-01-07T10:14:44.994Z,5.73
2023-01-07T10:17:23.497Z,5.40
2023-01-07T10:20:00.211Z,5.83
2023-01-07T10:22:33.939Z,4.70
2023-01-07T10:25:06.040Z,5.50
2023-01-07T10:27:38.849Z,4.83
2023-01-07T10:30:13.366Z,5.43
2023-01-07T10:32:42.939Z,4.47
2023-01-07T10:35:18.624Z,4.70
2023-01-07T10:37:48.498Z,4.47
2023-01-07T10:40:32.200Z,4.60
2023-01-07T10:43:05.239Z,4.97
2023-01-07T10:45:58.479Z,4.97
2023-01-07T10:48:56.706Z,4.57
2023-01-07T10:51:55.975Z,4.23
2023-01-07T10:54:57.145Z,5.20
2023-01-07T10:57:28.348Z,4.40
2023-01-07T11:00:02.507Z,4.90
2023-01-07T11:02:31.384Z,5.07
2023-01-07T11:05:00.577Z,5.03
2023-01-07T11:07:40.386Z,5.63
2023-01-07T11:10:16.340Z,5.13
2023-01-07T11:12:47.621Z,4.77
2023-01-07T11:15:20.428Z,6.03
2023-01-07T11:17:58.328Z,5.57
2023-01-07T11:20:50.261Z,6.37
2023-01-07T11:23:30.995Z,5.83
2023-01-07T11:26:16.919Z,6.20
2023-01-07T11:28:52.698Z,5.77
2023-01-07T11:31:21.869Z,5.43
2023-01-07T11:34:03.175Z,5.37
2023-01-07T11:36:42.286Z,4.83
2023-01-07T11:39:13.077Z,4.53
2023-01-07T11:41:53.887Z,4.53
2023-01-07T11:44:22.571Z,5.03
2023-01-07T11:46:51.355Z,5.13
2023-01-07T11:49:26.270Z,4.80
2023-01-07T11:51:55.127Z,5.10
2023-01-07T11:54:25.909Z,4.97
2023-01-07T11:57:13.296Z,4.43
2023-01-07T11:59:41.672Z,4.67
2023-01-07T12:02:25.912Z,4.97
2023-01-07T12:05:14.274Z,4.47
2023-01-07T12:07:47.045Z,4.70
2023-01-07T12:10:35.868Z,4.90
2023-01-07T12:13:18.016Z,5.30
2023-01-07T12:15:53.261Z,5.53
2023-01-07T12:18:47.692Z,4.90
2023-01-07T12:21:36.144Z,4.70
2023-01-07T12:24:37.639Z,4.73
2023-01-07T12:27:16.889Z,4.80
2023-01-07T12:29:57.084Z,4.77
2023-01-07T12:32:40.893Z,4.80
2023-01-07T12:35:14.348Z,5.67
2023-01-07T12:37:49.181Z,5.07
2023-01-07T12:40:24.394Z,4.93
2023-01-07T12:42:58.007Z,4.87
2023-01-07T12:45:34.611Z,5.47
2023-01-07T12:48:07.472Z,5.63
2023-01-07T12:50:42.097Z,5.10
2023-01-07T12:53:16.793Z,4.33
2023-01-07T12:55:49.481Z,4.30
2023-01-07T12:58:25.677Z,4.43
2023-01-07T13:01:01.597Z,5.80
2023-01-07T13:03:39.816Z,4.00
2023-01-07T13:06:15.435Z,9.23
2023-01-07T13:08:48.445Z,9.47
2023-01-07T13:11:42.354Z,8.40
2023-01-07T13:14:18.846Z,5.53
2023-01-07T13:16:49.376Z,5.23
2023-01-07T13:19:17.992Z,5.33
2023-01-07T13:21:49.406Z,5.43
2023-01-07T13:24:56.075Z,5.03
2023-01-07T13:27:29.700Z,4.40
2023-01-07T13:30:10.094Z,5.10
2023-01-07T13:33:10.790Z,4.83
2023-01-07T13:36:03.372Z,6.10
2023-01-07T13:38:52.841Z,5.32
2023-01-07T13:41:34.126Z,4.45
2023-01-07T13:44:14.005Z,4.63
2023-01-07T13:46:45.801Z,4.90
2023-01-07T13:49:28.252Z,4.78
2023-01-07T13:51:56.978Z,4.63
2023-01-07T13:54:57.870Z,4.03
2023-01-07T13:57:51.090Z,4.38
2023-01-07T14:00:39.503Z,5.25
2023-01-07T14:03:50.505Z,4.88
2023-01-07T14:06:48.730Z,4.82
2023-01-07T14:09:34.761Z,4.78
2023-01-07T14:12:33.445Z,5.88
2023-01-07T14:15:33.416Z,5.65
2023-01-07T14:18:41.071Z,5.40
2023-01-07T14:21:23.508Z,4.88
2023-01-07T14:24:04.173Z,6.07
2023-01-07T14:26:40.122Z,5.40
2023-01-07T14:29:39.835Z,5.43
2023-01-07T14:32:31.602Z,5.60
2023-01-07T14:35:02.930Z,4.90
2023-01-07T14:37:35.217Z,5.70
2023-01-07T14:40:42.850Z,4.67
2023-01-07T14:43:48.328Z,4.57
2023-01-07T14:47:01.256Z,5.57
2023-01-07T14:49:57.054Z,5.67
2023-01-07T14:52:48.555Z,5.07
2023-01-07T14:55:54.850Z,5.30
2023-01-07T14:58:47.450Z,5.20
2023-01-07T15:01:51.532Z,6.33
2023-01-07T15:04:55.365Z,7.67
2023-01-07T15:07:27.153Z,9.20
2023-01-07T15:10:17.065Z,7.80
2023-01-07T15:13:09.528Z,8.20
2023-01-07T15:15:58.789Z,10.67
2023-01-07T15:18:27.415Z,12.67
2023-01-07T15:21:09.793Z,13.33
2023-01-07T15:23:44.735Z,13.13
2023-01-07T15:26:20.897Z,11.50
2023-01-07T15:28:56.925Z,12.50
2023-01-07T15:31:33.379Z,13.37
2023-01-07T15:34:10.699Z,13.00
2023-01-07T15:36:43.185Z,12.10
2023-01-07T15:39:21.262Z,10.73
2023-01-07T15:41:53.577Z,12.63
2023-01-07T15:44:29.109Z,13.07
2023-01-07T15:46:57.763Z,11.90
2023-01-07T15:49:26.943Z,11.83
2023-01-07T15:51:57.138Z,14.00
2023-01-07T15:54:32.065Z,19.63
2023-01-07T15:57:08.346Z,19.43
2023-01-07T15:59:40.625Z,21.63
2023-01-07T16:02:23.324Z,27.97
2023-01-07T16:04:53.997Z,31.67
2023-01-07T16:07:29.472Z,29.93
2023-01-07T16:09:58.822Z,24.77
2023-01-07T16:12:32.585Z,24.97
2023-01-07T16:15:04.704Z,24.97
2023-01-07T16:17:33.478Z,26.07
2023-01-07T16:20:21.214Z,25.50
2023-01-07T16:22:49.821Z,25.07
2023-01-07T16:25:27.669Z,26.60
2023-01-07T16:27:56.215Z,24.57
2023-01-07T16:30:26.132Z,24.33
2023-01-07T16:32:55.227Z,25.20
2023-01-07T16:35:29.572Z,28.33
2023-01-07T16:37:58.118Z,25.90
2023-01-07T16:40:32.344Z,30.63
2023-01-07T16:43:00.682Z,27.63
2023-01-07T16:45:32.555Z,25.97
2023-01-07T16:48:03.214Z,26.47
2023-01-07T16:50:39.464Z,24.57
2023-01-07T16:53:26.471Z,26.30
2023-01-07T16:56:08.192Z,25.13
2023-01-07T16:58:41.034Z,27.10
2023-01-07T17:01:12.392Z,29.60
2023-01-07T17:03:49.966Z,32.60
2023-01-07T17:06:23.006Z,33.27
2023-01-07T17:08:53.494Z,36.87
2023-01-07T17:11:26.637Z,37.33
2023-01-07T17:13:55.068Z,31.77
2023-01-07T17:16:30.626Z,31.57
2023-01-07T17:19:00.442Z,33.27
2023-01-07T17:21:40.245Z,40.47
2023-01-07T17:24:23.364Z,40.57
2023-01-07T17:26:52.733Z,46.87
2023-01-07T17:29:27.846Z,46.07
2023-01-07T17:31:57.701Z,43.40
2023-01-07T17:34:26.108Z,44.23
2023-01-07T17:36:54.481Z,46.90
2023-01-07T17:39:22.826Z,48.80
2023-01-07T17:42:08.605Z,49.27
2023-01-07T17:44:37.249Z,49.30
2023-01-07T17:47:11.788Z,46.70
2023-01-07T17:49:43.525Z,45.63
2023-01-07T17:52:12.589Z,45.63
2023-01-07T17:54:42.390Z,48.63
2023-01-07T17:57:13.180Z,47.00
2023-01-07T17:59:47.309Z,49.03
2023-01-07T18:02:20.565Z,50.23
2023-01-07T18:04:49.071Z,48.10
2023-01-07T18:07:17.462Z,48.93
2023-01-07T18:09:45.995Z,48.23
2023-01-07T18:12:33.305Z,49.30
2023-01-07T18:15:02.809Z,48.70
2023-01-07T18:17:34.458Z,45.13
2023-01-07T18:20:02.847Z,45.63
2023-01-07T18:22:31.170Z,43.87
2023-01-07T18:24:59.538Z,43.83
2023-01-07T18:27:27.907Z,47.13
2023-01-07T18:29:56.944Z,43.80
2023-01-07T18:32:25.320Z,43.30
2023-01-07T18:34:55.073Z,41.63
2023-01-07T18:37:23.545Z,41.90
2023-01-07T18:39:51.956Z,39.90
2023-01-07T18:42:20.465Z,40.17
2023-01-07T18:44:48.846Z,37.97
2023-01-07T18:47:17.291Z,38.63
2023-01-07T18:49:45.729Z,37.77
2023-01-07T18:52:15.970Z,33.27
2023-01-07T18:54:46.067Z,34.77
2023-01-07T18:57:15.482Z,37.30
2023-01-07T18:59:43.888Z,33.43
2023-01-07T19:02:17.143Z,32.37
2023-01-07T19:04:48.036Z,32.33
2023-01-07T19:07:18.583Z,34.27
2023-01-07T19:09:47.252Z,35.77
2023-01-07T19:12:15.667Z,34.73
2023-01-07T19:14:44.129Z,31.90
2023-01-07T19:17:12.628Z,29.43
2023-01-07T19:19:48.447Z,28.83
2023-01-07T19:22:20.263Z,28.07
2023-01-07T19:24:48.701Z,26.53
2023-01-07T19:27:17.096Z,30.50
2023-01-07T19:29:45.438Z,27.60
2023-01-07T19:32:13.768Z,24.93
2023-01-07T19:34:42.203Z,28.23
2023-01-07T19:37:10.593Z,24.17
2023-01-07T19:39:40.740Z,26.60
2023-01-07T19:42:09.961Z,25.20
2023-01-07T19:44:38.577Z,24.63
2023-01-07T19:47:07.001Z,25.13
2023-01-07T19:49:36.193Z,24.67
2023-01-07T19:52:04.682Z,24.80
2023-01-07T19:54:33.094Z,26.13
2023-01-07T19:57:02.851Z,24.40
2023-01-07T19:59:33.905Z,23.23
2023-01-07T20:02:02.957Z,23.47
2023-01-07T20:04:31.465Z,24.20
2023-01-07T20:06:59.837Z,23.07
2023-01-07T20:09:28.228Z,24.53
2023-01-07T20:11:56.722Z,28.20
2023-01-07T20:14:26.487Z,28.93
2023-01-07T20:16:54.897Z,27.70
2023-01-07T20:19:24.199Z,27.83
2023-01-07T20:21:52.525Z,24.43
2023-01-07T20:24:21.834Z,25.67
2023-01-07T20:26:50.216Z,27.77
2023-01-07T20:29:18.619Z,26.97
2023-01-07T20:31:48.427Z,25.47
2023-01-07T20:34:16.795Z,26.10
2023-01-07T20:36:45.142Z,25.47
2023-01-07T20:39:13.489Z,25.87
2023-01-07T20:41:43.208Z,25.53
2023-01-07T20:44:12.801Z,26.10
2023-01-07T20:46:41.552Z,26.27
2023-01-07T20:49:12.439Z,24.27
2023-01-07T20:51:40.922Z,24.20
2023-01-07T20:54:09.364Z,26.57
2023-01-07T20:56:37.684Z,26.27
2023-01-07T20:59:06.106Z,24.43
2023-01-07T21:01:34.605Z,26.60
2023-01-07T21:04:02.989Z,25.40
2023-01-07T21:06:32.916Z,23.97
2023-01-07T21:09:01.327Z,26.13
2023-01-07T21:11:29.626Z,26.57
2023-01-07T21:13:57.958Z,27.27
2023-01-07T21:16:27.601Z,26.70
2023-01-07T21:18:56.280Z,27.87
2023-01-07T21:21:25.842Z,31.73
2023-01-07T21:23:56.051Z,36.37
2023-01-07T21:26:24.977Z,32.17
2023-01-07T21:28:56.044Z,30.20
2023-01-07T21:31:25.381Z,32.53
2023-01-07T21:33:56.770Z,29.97
2023-01-07T21:36:26.297Z,29.23
2023-01-07T21:38:57.503Z,25.90
2023-01-07T21:41:26.816Z,26.97
2023-01-07T21:43:55.918Z,25.53
2023-01-07T21:46:24.310Z,27.13
2023-01-07T21:48:53.059Z,25.70
2023-01-07T21:51:23.430Z,24.50
2023-01-07T21:53:55.723Z,26.63
2023-01-07T21:56:27.324Z,25.50
2023-01-07T21:58:55.755Z,29.73
2023-01-07T22:01:28.615Z,25.20
2023-01-07T22:03:58.861Z,27.33
2023-01-07T22:06:29.032Z,27.80
2023-01-07T22:08:58.992Z,28.50
2023-01-07T22:11:29.327Z,28.17
2023-01-07T22:14:00.124Z,31.37
2023-01-07T22:16:30.787Z,31.53
2023-01-07T22:18:59.522Z,35.27
2023-01-07T22:21:29.530Z,32.33
2023-01-07T22:23:57.949Z,39.97
2023-01-07T22:26:26.346Z,34.77
2023-01-07T22:28:57.415Z,34.17
2023-01-07T22:31:27.927Z,32.23
2023-01-07T22:33:56.587Z,33.07
2023-01-07T22:36:29.935Z,31.00
2023-01-07T22:39:01.492Z,30.47
2023-01-07T22:41:33.124Z,29.50
2023-01-07T22:44:06.430Z,28.63
2023-01-07T22:46:35.351Z,28.83
2023-01-07T22:49:03.849Z,28.50
2023-01-07T22:51:38.744Z,27.67
2023-01-07T22:54:08.535Z,26.90
2023-01-07T22:56:36.972Z,26.30
2023-01-07T22:59:08.827Z,31.23
2023-01-07T23:01:38.030Z,26.00
2023-01-07T23:04:06.666Z,24.43
2023-01-07T23:06:35.321Z,25.17
2023-01-07T23:09:04.676Z,22.93
2023-01-07T23:11:52.035Z,22.83
2023-01-07T23:14:23.561Z,22.10
2023-01-07T23:16:52.903Z,22.00
2023-01-07T23:19:22.741Z,22.67
2023-01-07T23:21:53.434Z,22.30
2023-01-07T23:24:22.167Z,22.73
2023-01-07T23:26:52.303Z,21.17
2023-01-07T23:29:22.600Z,22.27
2023-01-07T23:31:51.509Z,22.50
2023-01-07T23:34:19.818Z,22.83
2023-01-07T23:36:48.201Z,21.60
2023-01-07T23:39:16.668Z,23.43
2023-01-07T23:41:45.807Z,23.43
2023-01-07T23:44:14.296Z,20.80
2023-01-07T23:46:44.075Z,21.47
2023-01-07T23:49:12.511Z,21.63
2023-01-07T23:51:41.810Z,19.47
2023-01-07T23:54:10.621Z,19.30
2023-01-07T23:56:39.006Z,22.40
2023-01-07T23:59:07.719Z,18.53
